Página principal
METAR-TAF:

METAR-TAF

Aeroportos :

Aeroporto de Estocolmo-Arlanda

Estocolmo-Arlanda, Suécia

latitude: 59-39N, longitude: 017-57E, altura: 38 m

Observação actual do tempo

O boletim foi feito há 29 minutos, às 09:20 UTC
Vento 14 kt de nor-nordeste
Temperatura 21°C
Humidade 26%
Pressão 1031 hPa
Visibilidade 10 km ou mais
sem nuvens abaixo de 1500 metros e sem cumulonimbus

METAR: ESSA 270920Z 02014KT CAVOK 21/01 Q1031 NOSIG

Hora: 11:49 (09:49 UTC)

Previsão

O boletim foi feito há 4 horas e 19 minutos, às 05:30 UTC
Previsão válida de 27 às 06 UTC a 28 às 06 UTC
Vento 13 kt de nordeste
Visibilidade 10 km ou mais
sem nuvens abaixo de 1500 metros e sem cumulonimbus
Tornando-se
de 27 às 20 UTC a 27 às 22 UTC
Vento 3 kt de nor-nordeste

TAF: ESSA 270530Z 2706/2806 04013KT CAVOK BECMG 2720/2722 03003KT

Observações e previsões do tempo de mais de 4000 aeroportos (mensagens METAR e TAF).

As estações disponíveis são os pontos amarelos e vermelhos sobre o mapa.

Mova o rato sobre o mapa para ver o nome da estação.

Depois clique no ponto para visualizar as observações e previsões meteorológicas.

Para alterar o mapa : clique nos botões verdes com uma cruz preta para aumentar o zoom; no botão verde com uma pitada de zoom; ou nas setas verdes para mapas adjacentes.


METAR-TAF: